sensor_id;sensor_type;location;lat;lon;timestamp;temperature;humidity
34095;DHT22;20372;47.080;15.410;2023-03-21T00:01:28;9.30;93.80
34095;DHT22;20372;47.080;15.410;2023-03-21T00:03:54;9.30;93.80
34095;DHT22;20372;47.080;15.410;2023-03-21T00:06:20;9.30;93.90
34095;DHT22;20372;47.080;15.410;2023-03-21T00:08:45;9.30;94.10
34095;DHT22;20372;47.080;15.410;2023-03-21T00:11:11;9.20;94.20
34095;DHT22;20372;47.080;15.410;2023-03-21T00:13:37;9.30;94.00
34095;DHT22;20372;47.080;15.410;2023-03-21T00:16:10;9.50;93.70
34095;DHT22;20372;47.080;15.410;2023-03-21T00:18:44;9.60;93.30
34095;DHT22;20372;47.080;15.410;2023-03-21T00:21:11;9.60;93.30
34095;DHT22;20372;47.080;15.410;2023-03-21T00:23:40;9.60;93.50
34095;DHT22;20372;47.080;15.410;2023-03-21T00:26:05;9.50;93.50
34095;DHT22;20372;47.080;15.410;2023-03-21T00:28:36;9.60;93.60
34095;DHT22;20372;47.080;15.410;2023-03-21T00:31:02;9.60;93.40
34095;DHT22;20372;47.080;15.410;2023-03-21T00:33:27;9.60;93.40
34095;DHT22;20372;47.080;15.410;2023-03-21T00:35:54;9.60;93.50
34095;DHT22;20372;47.080;15.410;2023-03-21T00:38:20;9.70;93.40
34095;DHT22;20372;47.080;15.410;2023-03-21T00:40:46;9.70;93.50
34095;DHT22;20372;47.080;15.410;2023-03-21T00:43:12;9.80;93.30
34095;DHT22;20372;47.080;15.410;2023-03-21T00:45:42;9.80;93.30
34095;DHT22;20372;47.080;15.410;2023-03-21T00:48:08;9.70;93.50
34095;DHT22;20372;47.080;15.410;2023-03-21T00:50:34;9.70;93.60
34095;DHT22;20372;47.080;15.410;2023-03-21T00:53:00;9.70;93.50
34095;DHT22;20372;47.080;15.410;2023-03-21T00:55:26;9.90;93.30
34095;DHT22;20372;47.080;15.410;2023-03-21T00:57:51;10.00;93.00
34095;DHT22;20372;47.080;15.410;2023-03-21T01:00:17;10.00;93.30
34095;DHT22;20372;47.080;15.410;2023-03-21T01:02:43;9.80;93.60
34095;DHT22;20372;47.080;15.410;2023-03-21T01:05:26;9.80;93.90
34095;DHT22;20372;47.080;15.410;2023-03-21T01:08:10;9.70;94.20
34095;DHT22;20372;47.080;15.410;2023-03-21T01:10:37;9.70;94.10
34095;DHT22;20372;47.080;15.410;2023-03-21T01:13:03;9.60;94.20
34095;DHT22;20372;47.080;15.410;2023-03-21T01:15:28;9.70;93.70
34095;DHT22;20372;47.080;15.410;2023-03-21T01:17:54;9.80;93.60
34095;DHT22;20372;47.080;15.410;2023-03-21T01:20:19;9.70;93.90
34095;DHT22;20372;47.080;15.410;2023-03-21T01:22:45;9.70;93.90
34095;DHT22;20372;47.080;15.410;2023-03-21T01:25:10;9.70;93.80
34095;DHT22;20372;47.080;15.410;2023-03-21T01:27:36;9.70;93.70
34095;DHT22;20372;47.080;15.410;2023-03-21T01:30:02;10.30;92.20
34095;DHT22;20372;47.080;15.410;2023-03-21T01:32:28;10.70;91.40
34095;DHT22;20372;47.080;15.410;2023-03-21T01:34:53;10.80;91.00
34095;DHT22;20372;47.080;15.410;2023-03-21T01:37:19;10.90;90.70
34095;DHT22;20372;47.080;15.410;2023-03-21T01:39:45;10.90;90.60
34095;DHT22;20372;47.080;15.410;2023-03-21T01:42:13;11.00;90.40
34095;DHT22;20372;47.080;15.410;2023-03-21T01:44:55;11.00;90.20
34095;DHT22;20372;47.080;15.410;2023-03-21T01:47:22;11.00;90.20
34095;DHT22;20372;47.080;15.410;2023-03-21T01:49:48;11.00;90.10
34095;DHT22;20372;47.080;15.410;2023-03-21T01:52:23;11.00;90.00
34095;DHT22;20372;47.080;15.410;2023-03-21T01:54:50;11.00;90.30
34095;DHT22;20372;47.080;15.410;2023-03-21T01:57:27;11.00;90.00
34095;DHT22;20372;47.080;15.410;2023-03-21T01:59:57;11.00;90.20
34095;DHT22;20372;47.080;15.410;2023-03-21T02:02:26;10.90;90.10
34095;DHT22;20372;47.080;15.410;2023-03-21T02:04:54;10.90;90.10
34095;DHT22;20372;47.080;15.410;2023-03-21T02:07:27;10.70;90.90
34095;DHT22;20372;47.080;15.410;2023-03-21T02:09:53;10.20;92.30
34095;DHT22;20372;47.080;15.410;2023-03-21T02:12:19;9.90;93.30
34095;DHT22;20372;47.080;15.410;2023-03-21T02:14:45;9.70;93.80
34095;DHT22;20372;47.080;15.410;2023-03-21T02:22:51;9.90;92.90
34095;DHT22;20372;47.080;15.410;2023-03-21T02:27:55;9.60;93.20
34095;DHT22;20372;47.080;15.410;2023-03-21T02:35:57;9.70;93.10
34095;DHT22;20372;47.080;15.410;2023-03-21T02:41:31;9.70;92.90
34095;DHT22;20372;47.080;15.410;2023-03-21T02:43:57;9.80;92.70
34095;DHT22;20372;47.080;15.410;2023-03-21T02:46:29;9.80;92.70
34095;DHT22;20372;47.080;15.410;2023-03-21T02:49:06;9.60;93.10
34095;DHT22;20372;47.080;15.410;2023-03-21T02:51:32;9.50;93.50
34095;DHT22;20372;47.080;15.410;2023-03-21T02:54:09;9.40;93.60
34095;DHT22;20372;47.080;15.410;2023-03-21T02:56:36;9.30;93.90
34095;DHT22;20372;47.080;15.410;2023-03-21T02:59:03;9.30;94.00
34095;DHT22;20372;47.080;15.410;2023-03-21T03:01:29;9.30;94.20
34095;DHT22;20372;47.080;15.410;2023-03-21T03:03:56;9.20;94.10
34095;DHT22;20372;47.080;15.410;2023-03-21T03:06:26;9.00;94.40
34095;DHT22;20372;47.080;15.410;2023-03-21T03:16:39;9.00;94.60
34095;DHT22;20372;47.080;15.410;2023-03-21T03:19:10;9.20;94.00
34095;DHT22;20372;47.080;15.410;2023-03-21T03:24:13;9.00;94.30
34095;DHT22;20372;47.080;15.410;2023-03-21T03:26:54;9.00;94.40
34095;DHT22;20372;47.080;15.410;2023-03-21T03:29:21;8.90;94.70
34095;DHT22;20372;47.080;15.410;2023-03-21T03:31:48;8.80;94.90
34095;DHT22;20372;47.080;15.410;2023-03-21T03:34:20;8.80;94.90
34095;DHT22;20372;47.080;15.410;2023-03-21T03:36:47;9.00;94.70
34095;DHT22;20372;47.080;15.410;2023-03-21T03:39:15;8.80;94.90
34095;DHT22;20372;47.080;15.410;2023-03-21T03:41:44;8.80;94.90
34095;DHT22;20372;47.080;15.410;2023-03-21T03:44:10;8.80;94.80
34095;DHT22;20372;47.080;15.410;2023-03-21T03:46:53;8.80;94.90
34095;DHT22;20372;47.080;15.410;2023-03-21T03:49:22;8.80;95.00
34095;DHT22;20372;47.080;15.410;2023-03-21T03:51:50;8.70;95.20
34095;DHT22;20372;47.080;15.410;2023-03-21T03:54:21;8.70;95.20
34095;DHT22;20372;47.080;15.410;2023-03-21T03:56:48;8.60;95.20
34095;DHT22;20372;47.080;15.410;2023-03-21T03:59:15;8.70;95.10
34095;DHT22;20372;47.080;15.410;2023-03-21T04:01:46;8.70;95.10
34095;DHT22;20372;47.080;15.410;2023-03-21T04:04:11;8.70;95.00
34095;DHT22;20372;47.080;15.410;2023-03-21T04:06:41;8.60;95.10
34095;DHT22;20372;47.080;15.410;2023-03-21T04:09:07;8.50;95.30
34095;DHT22;20372;47.080;15.410;2023-03-21T04:11:33;8.40;95.40
34095;DHT22;20372;47.080;15.410;2023-03-21T04:13:59;8.20;96.20
34095;DHT22;20372;47.080;15.410;2023-03-21T04:16:24;7.90;96.50
34095;DHT22;20372;47.080;15.410;2023-03-21T04:18:50;7.70;96.90
34095;DHT22;20372;47.080;15.410;2023-03-21T04:21:16;7.50;97.90
34095;DHT22;20372;47.080;15.410;2023-03-21T04:23:42;7.20;98.30
34095;DHT22;20372;47.080;15.410;2023-03-21T04:26:08;7.10;99.20
34095;DHT22;20372;47.080;15.410;2023-03-21T04:28:34;6.90;99.40
34095;DHT22;20372;47.080;15.410;2023-03-21T04:31:01;6.70;99.90
34095;DHT22;20372;47.080;15.410;2023-03-21T04:33:27;6.70;99.90
34095;DHT22;20372;47.080;15.410;2023-03-21T04:35:52;6.50;99.90
34095;DHT22;20372;47.080;15.410;2023-03-21T04:38:26;6.60;99.90
34095;DHT22;20372;47.080;15.410;2023-03-21T04:40:55;6.60;99.90
34095;DHT22;20372;47.080;15.410;2023-03-21T04:43:21;6.60;99.90
34095;DHT22;20372;47.080;15.410;2023-03-21T04:45:48;6.50;99.90
34095;DHT22;20372;47.080;15.410;2023-03-21T04:48:15;6.50;99.90
34095;DHT22;20372;47.080;15.410;2023-03-21T04:50:43;6.40;99.90
34095;DHT22;20372;47.080;15.410;2023-03-21T04:53:08;6.50;99.90
34095;DHT22;20372;47.080;15.410;2023-03-21T04:55:34;6.40;99.90
34095;DHT22;20372;47.080;15.410;2023-03-21T04:58:04;6.40;99.90
34095;DHT22;20372;47.080;15.410;2023-03-21T05:00:29;6.40;99.90
34095;DHT22;20372;47.080;15.410;2023-03-21T05:02:56;6.40;99.90
34095;DHT22;20372;47.080;15.410;2023-03-21T05:05:23;6.30;99.90
34095;DHT22;20372;47.080;15.410;2023-03-21T05:07:49;6.50;99.90
34095;DHT22;20372;47.080;15.410;2023-03-21T05:10:15;6.50;99.90
34095;DHT22;20372;47.080;15.410;2023-03-21T05:12:40;6.50;99.90
34095;DHT22;20372;47.080;15.410;2023-03-21T05:15:06;6.50;99.90
34095;DHT22;20372;47.080;15.410;2023-03-21T05:17:32;6.70;99.90
34095;DHT22;20372;47.080;15.410;2023-03-21T05:19:57;6.80;99.90
34095;DHT22;20372;47.080;15.410;2023-03-21T05:22:23;6.90;99.90
34095;DHT22;20372;47.080;15.410;2023-03-21T05:24:51;6.90;99.90
34095;DHT22;20372;47.080;15.410;2023-03-21T05:27:20;6.90;99.90
34095;DHT22;20372;47.080;15.410;2023-03-21T05:30:05;6.80;99.90
34095;DHT22;20372;47.080;15.410;2023-03-21T05:32:31;6.90;99.90
34095;DHT22;20372;47.080;15.410;2023-03-21T05:34:57;6.70;99.90
34095;DHT22;20372;47.080;15.410;2023-03-21T05:37:23;6.80;99.90
34095;DHT22;20372;47.080;15.410;2023-03-21T05:39:48;7.10;99.90
34095;DHT22;20372;47.080;15.410;2023-03-21T05:42:14;7.30;99.90
34095;DHT22;20372;47.080;15.410;2023-03-21T05:44:40;7.10;99.90
34095;DHT22;20372;47.080;15.410;2023-03-21T05:47:06;7.20;99.90
34095;DHT22;20372;47.080;15.410;2023-03-21T05:49:32;7.30;99.90
34095;DHT22;20372;47.080;15.410;2023-03-21T05:51:58;7.30;99.90
34095;DHT22;20372;47.080;15.410;2023-03-21T05:54:23;7.30;99.90
34095;DHT22;20372;47.080;15.410;2023-03-21T05:56:49;7.20;99.90
34095;DHT22;20372;47.080;15.410;2023-03-21T05:59:15;7.10;99.90
34095;DHT22;20372;47.080;15.410;2023-03-21T06:01:41;7.10;99.90
34095;DHT22;20372;47.080;15.410;2023-03-21T06:04:06;7.20;99.90
34095;DHT22;20372;47.080;15.410;2023-03-21T06:06:32;7.80;99.90
34095;DHT22;20372;47.080;15.410;2023-03-21T06:08:58;10.50;98.90
34095;DHT22;20372;47.080;15.410;2023-03-21T06:11:25;13.30;92.90
34095;DHT22;20372;47.080;15.410;2023-03-21T06:13:51;14.10;89.60
34095;DHT22;20372;47.080;15.410;2023-03-21T06:16:17;14.50;86.40
34095;DHT22;20372;47.080;15.410;2023-03-21T06:18:42;12.30;89.60
34095;DHT22;20372;47.080;15.410;2023-03-21T06:21:08;12.20;91.40
34095;DHT22;20372;47.080;15.410;2023-03-21T06:23:33;13.30;89.30
34095;DHT22;20372;47.080;15.410;2023-03-21T06:26:01;14.70;85.60
34095;DHT22;20372;47.080;15.410;2023-03-21T06:28:26;16.00;82.00
34095;DHT22;20372;47.080;15.410;2023-03-21T06:30:52;17.10;79.40
34095;DHT22;20372;47.080;15.410;2023-03-21T06:33:17;17.70;77.70
34095;DHT22;20372;47.080;15.410;2023-03-21T06:35:43;18.50;74.70
34095;DHT22;20372;47.080;15.410;2023-03-21T06:38:09;19.60;72.80
34095;DHT22;20372;47.080;15.410;2023-03-21T06:40:36;21.10;70.30
34095;DHT22;20372;47.080;15.410;2023-03-21T06:43:02;21.80;68.50
34095;DHT22;20372;47.080;15.410;2023-03-21T06:45:27;22.40;66.60
34095;DHT22;20372;47.080;15.410;2023-03-21T06:47:53;21.20;65.80
34095;DHT22;20372;47.080;15.410;2023-03-21T06:50:18;21.40;67.00
34095;DHT22;20372;47.080;15.410;2023-03-21T06:52:44;22.40;65.30
34095;DHT22;20372;47.080;15.410;2023-03-21T06:55:10;23.00;64.50
34095;DHT22;20372;47.080;15.410;2023-03-21T06:57:35;23.10;63.90
34095;DHT22;20372;47.080;15.410;2023-03-21T07:00:01;22.70;62.80
34095;DHT22;20372;47.080;15.410;2023-03-21T07:02:29;20.40;63.80
34095;DHT22;20372;47.080;15.410;2023-03-21T07:04:55;21.20;65.00
34095;DHT22;20372;47.080;15.410;2023-03-21T07:07:24;22.10;64.30
34095;DHT22;20372;47.080;15.410;2023-03-21T07:09:50;22.90;64.00
34095;DHT22;20372;47.080;15.410;2023-03-21T07:12:16;23.40;63.20
34095;DHT22;20372;47.080;15.410;2023-03-21T07:14:41;23.50;62.10
34095;DHT22;20372;47.080;15.410;2023-03-21T07:17:07;23.60;61.60
34095;DHT22;20372;47.080;15.410;2023-03-21T07:19:32;22.70;62.00
34095;DHT22;20372;47.080;15.410;2023-03-21T07:21:58;22.70;62.40
34095;DHT22;20372;47.080;15.410;2023-03-21T07:24:25;22.20;62.40
34095;DHT22;20372;47.080;15.410;2023-03-21T07:26:52;21.70;63.20
34095;DHT22;20372;47.080;15.410;2023-03-21T07:29:17;22.40;62.20
34095;DHT22;20372;47.080;15.410;2023-03-21T07:31:45;22.20;62.70
34095;DHT22;20372;47.080;15.410;2023-03-21T07:34:11;21.80;62.10
34095;DHT22;20372;47.080;15.410;2023-03-21T07:36:36;20.70;63.70
34095;DHT22;20372;47.080;15.410;2023-03-21T07:39:02;20.30;64.80
34095;DHT22;20372;47.080;15.410;2023-03-21T07:41:29;20.00;64.00
34095;DHT22;20372;47.080;15.410;2023-03-21T07:43:54;20.10;64.40
34095;DHT22;20372;47.080;15.410;2023-03-21T07:46:20;21.60;63.80
34095;DHT22;20372;47.080;15.410;2023-03-21T07:48:45;22.10;62.00
34095;DHT22;20372;47.080;15.410;2023-03-21T07:51:11;21.10;61.40
34095;DHT22;20372;47.080;15.410;2023-03-21T07:53:36;20.60;60.60
34095;DHT22;20372;47.080;15.410;2023-03-21T07:56:02;20.90;61.30
34095;DHT22;20372;47.080;15.410;2023-03-21T07:58:28;21.40;60.70
34095;DHT22;20372;47.080;15.410;2023-03-21T08:00:54;21.40;60.40
34095;DHT22;20372;47.080;15.410;2023-03-21T08:03:22;20.60;60.80
34095;DHT22;20372;47.080;15.410;2023-03-21T08:05:48;20.40;60.70
34095;DHT22;20372;47.080;15.410;2023-03-21T08:08:13;20.80;60.70
34095;DHT22;20372;47.080;15.410;2023-03-21T08:10:41;21.20;61.70
34095;DHT22;20372;47.080;15.410;2023-03-21T08:13:06;21.20;60.80
34095;DHT22;20372;47.080;15.410;2023-03-21T08:15:32;20.20;61.00
34095;DHT22;20372;47.080;15.410;2023-03-21T08:17:58;20.20;60.10
34095;DHT22;20372;47.080;15.410;2023-03-21T08:20:23;20.40;61.10
34095;DHT22;20372;47.080;15.410;2023-03-21T08:22:49;20.10;61.00
34095;DHT22;20372;47.080;15.410;2023-03-21T08:25:15;20.40;62.60
34095;DHT22;20372;47.080;15.410;2023-03-21T08:27:42;21.50;59.90
34095;DHT22;20372;47.080;15.410;2023-03-21T08:30:09;21.00;61.90
34095;DHT22;20372;47.080;15.410;2023-03-21T08:32:36;21.60;59.70
34095;DHT22;20372;47.080;15.410;2023-03-21T08:35:04;21.10;60.30
34095;DHT22;20372;47.080;15.410;2023-03-21T08:37:35;20.20;61.20
34095;DHT22;20372;47.080;15.410;2023-03-21T08:40:01;20.60;58.90
34095;DHT22;20372;47.080;15.410;2023-03-21T08:42:26;21.10;59.10
34095;DHT22;20372;47.080;15.410;2023-03-21T08:44:52;20.90;57.90
34095;DHT22;20372;47.080;15.410;2023-03-21T08:47:17;20.80;59.60
34095;DHT22;20372;47.080;15.410;2023-03-21T08:49:43;23.00;57.10
34095;DHT22;20372;47.080;15.410;2023-03-21T08:52:10;23.40;54.90
34095;DHT22;20372;47.080;15.410;2023-03-21T08:54:36;24.20;55.50
34095;DHT22;20372;47.080;15.410;2023-03-21T08:57:02;25.10;55.40
34095;DHT22;20372;47.080;15.410;2023-03-21T08:59:28;26.40;54.80
34095;DHT22;20372;47.080;15.410;2023-03-21T09:01:53;27.20;53.40
34095;DHT22;20372;47.080;15.410;2023-03-21T09:04:19;25.50;53.20
34095;DHT22;20372;47.080;15.410;2023-03-21T09:06:44;25.00;53.10
34095;DHT22;20372;47.080;15.410;2023-03-21T09:09:13;25.20;53.30
34095;DHT22;20372;47.080;15.410;2023-03-21T09:11:39;23.20;54.20
34095;DHT22;20372;47.080;15.410;2023-03-21T09:14:05;21.70;56.00
34095;DHT22;20372;47.080;15.410;2023-03-21T09:16:31;19.10;56.70
34095;DHT22;20372;47.080;15.410;2023-03-21T09:18:57;18.60;58.60
34095;DHT22;20372;47.080;15.410;2023-03-21T09:21:24;18.10;58.60
34095;DHT22;20372;47.080;15.410;2023-03-21T09:23:51;18.50;60.20
34095;DHT22;20372;47.080;15.410;2023-03-21T09:26:23;19.20;59.80
34095;DHT22;20372;47.080;15.410;2023-03-21T09:28:49;21.20;56.10
34095;DHT22;20372;47.080;15.410;2023-03-21T09:31:16;21.40;56.50
34095;DHT22;20372;47.080;15.410;2023-03-21T09:33:47;21.70;55.90
34095;DHT22;20372;47.080;15.410;2023-03-21T09:36:14;20.60;55.70
34095;DHT22;20372;47.080;15.410;2023-03-21T09:38:41;20.30;56.80
34095;DHT22;20372;47.080;15.410;2023-03-21T09:41:13;19.80;58.00
34095;DHT22;20372;47.080;15.410;2023-03-21T09:43:49;19.50;60.00
34095;DHT22;20372;47.080;15.410;2023-03-21T09:49:04;18.60;60.40
34095;DHT22;20372;47.080;15.410;2023-03-21T09:51:40;18.50;61.90
34095;DHT22;20372;47.080;15.410;2023-03-21T09:54:21;18.80;62.40
34095;DHT22;20372;47.080;15.410;2023-03-21T09:56:48;18.90;61.70
34095;DHT22;20372;47.080;15.410;2023-03-21T09:59:20;18.40;60.10
34095;DHT22;20372;47.080;15.410;2023-03-21T10:01:47;18.30;62.00
34095;DHT22;20372;47.080;15.410;2023-03-21T10:04:14;18.50;61.80
34095;DHT22;20372;47.080;15.410;2023-03-21T10:06:42;18.70;61.20
34095;DHT22;20372;47.080;15.410;2023-03-21T10:09:12;18.80;59.50
34095;DHT22;20372;47.080;15.410;2023-03-21T10:11:43;18.00;59.00
34095;DHT22;20372;47.080;15.410;2023-03-21T10:14:14;18.00;59.70
34095;DHT22;20372;47.080;15.410;2023-03-21T10:16:42;18.50;59.00
34095;DHT22;20372;47.080;15.410;2023-03-21T10:19:10;18.60;59.50
34095;DHT22;20372;47.080;15.410;2023-03-21T10:21:36;19.70;60.40
34095;DHT22;20372;47.080;15.410;2023-03-21T10:24:02;20.60;57.10
34095;DHT22;20372;47.080;15.410;2023-03-21T10:26:28;19.70;56.90
34095;DHT22;20372;47.080;15.410;2023-03-21T10:28:56;19.10;57.90
34095;DHT22;20372;47.080;15.410;2023-03-21T10:31:23;19.10;60.90
34095;DHT22;20372;47.080;15.410;2023-03-21T10:33:53;19.10;60.50
34095;DHT22;20372;47.080;15.410;2023-03-21T10:36:21;19.30;59.60
34095;DHT22;20372;47.080;15.410;2023-03-21T10:38:54;19.60;58.90
34095;DHT22;20372;47.080;15.410;2023-03-21T10:41:20;19.50;57.70
34095;DHT22;20372;47.080;15.410;2023-03-21T10:43:46;18.80;57.90
34095;DHT22;20372;47.080;15.410;2023-03-21T10:46:16;18.90;58.70
34095;DHT22;20372;47.080;15.410;2023-03-21T10:48:43;19.00;59.10
34095;DHT22;20372;47.080;15.410;2023-03-21T10:51:16;18.90;59.80
34095;DHT22;20372;47.080;15.410;2023-03-21T10:53:51;19.00;58.70
34095;DHT22;20372;47.080;15.410;2023-03-21T10:56:17;18.60;59.80
34095;DHT22;20372;47.080;15.410;2023-03-21T10:58:47;18.60;59.10
34095;DHT22;20372;47.080;15.410;2023-03-21T11:01:15;18.40;58.20
34095;DHT22;20372;47.080;15.410;2023-03-21T11:03:46;18.10;59.70
34095;DHT22;20372;47.080;15.410;2023-03-21T11:06:22;18.40;58.30
34095;DHT22;20372;47.080;15.410;2023-03-21T11:08:55;18.20;58.10
34095;DHT22;20372;47.080;15.410;2023-03-21T11:11:32;18.80;60.10
34095;DHT22;20372;47.080;15.410;2023-03-21T11:14:03;18.50;57.20
34095;DHT22;20372;47.080;15.410;2023-03-21T11:16:38;18.60;59.50
34095;DHT22;20372;47.080;15.410;2023-03-21T11:19:15;19.20;56.40
34095;DHT22;20372;47.080;15.410;2023-03-21T11:21:40;19.10;57.00
34095;DHT22;20372;47.080;15.410;2023-03-21T11:24:08;18.60;57.20
34095;DHT22;20372;47.080;15.410;2023-03-21T11:26:36;18.50;57.10
34095;DHT22;20372;47.080;15.410;2023-03-21T11:29:16;18.20;58.90
34095;DHT22;20372;47.080;15.410;2023-03-21T11:31:45;19.60;57.00
34095;DHT22;20372;47.080;15.410;2023-03-21T11:34:20;18.90;56.40
34095;DHT22;20372;47.080;15.410;2023-03-21T11:36:49;19.30;57.70
34095;DHT22;20372;47.080;15.410;2023-03-21T11:39:35;19.00;57.40
34095;DHT22;20372;47.080;15.410;2023-03-21T11:42:04;18.40;57.20
34095;DHT22;20372;47.080;15.410;2023-03-21T11:44:32;18.10;58.30
34095;DHT22;20372;47.080;15.410;2023-03-21T11:46:59;18.10;58.00
34095;DHT22;20372;47.080;15.410;2023-03-21T11:49:25;17.70;58.10
34095;DHT22;20372;47.080;15.410;2023-03-21T11:57:17;18.50;58.40
34095;DHT22;20372;47.080;15.410;2023-03-21T12:05:29;19.00;57.00
34095;DHT22;20372;47.080;15.410;2023-03-21T12:20:39;19.70;57.30
34095;DHT22;20372;47.080;15.410;2023-03-21T12:26:07;19.80;55.60
34095;DHT22;20372;47.080;15.410;2023-03-21T12:34:08;19.00;58.80
34095;DHT22;20372;47.080;15.410;2023-03-21T12:42:02;20.10;57.30
34095;DHT22;20372;47.080;15.410;2023-03-21T12:44:38;20.30;56.80
34095;DHT22;20372;47.080;15.410;2023-03-21T12:47:27;20.00;56.00
34095;DHT22;20372;47.080;15.410;2023-03-21T12:49:56;19.30;56.30
34095;DHT22;20372;47.080;15.410;2023-03-21T12:52:24;19.20;57.90
34095;DHT22;20372;47.080;15.410;2023-03-21T12:54:51;19.90;57.40
34095;DHT22;20372;47.080;15.410;2023-03-21T12:57:24;19.70;56.70
34095;DHT22;20372;47.080;15.410;2023-03-21T12:59:58;19.80;57.10
34095;DHT22;20372;47.080;15.410;2023-03-21T13:02:31;20.40;55.70
34095;DHT22;20372;47.080;15.410;2023-03-21T13:05:00;19.50;56.60
34095;DHT22;20372;47.080;15.410;2023-03-21T13:07:30;19.30;58.50
34095;DHT22;20372;47.080;15.410;2023-03-21T13:09:57;19.10;57.50
34095;DHT22;20372;47.080;15.410;2023-03-21T13:15:00;18.60;58.30
34095;DHT22;20372;47.080;15.410;2023-03-21T13:17:29;18.90;59.50
34095;DHT22;20372;47.080;15.410;2023-03-21T13:19:58;19.20;58.80
34095;DHT22;20372;47.080;15.410;2023-03-21T13:22:29;19.90;58.20
34095;DHT22;20372;47.080;15.410;2023-03-21T13:25:05;20.20;57.40
34095;DHT22;20372;47.080;15.410;2023-03-21T13:27:37;19.20;56.70
34095;DHT22;20372;47.080;15.410;2023-03-21T13:30:17;19.20;58.60
34095;DHT22;20372;47.080;15.410;2023-03-21T13:32:44;19.50;57.90
34095;DHT22;20372;47.080;15.410;2023-03-21T13:37:43;20.00;57.30
34095;DHT22;20372;47.080;15.410;2023-03-21T13:40:34;20.00;57.90
34095;DHT22;20372;47.080;15.410;2023-03-21T13:43:00;20.00;56.50
34095;DHT22;20372;47.080;15.410;2023-03-21T13:48:02;19.00;57.70
34095;DHT22;20372;47.080;15.410;2023-03-21T13:50:50;18.70;58.30
34095;DHT22;20372;47.080;15.410;2023-03-21T13:55:41;18.30;60.00
34095;DHT22;20372;47.080;15.410;2023-03-21T13:58:23;18.20;60.20
34095;DHT22;20372;47.080;15.410;2023-03-21T14:03:33;18.20;60.80
34095;DHT22;20372;47.080;15.410;2023-03-21T14:05:59;18.20;61.30
34095;DHT22;20372;47.080;15.410;2023-03-21T14:08:24;18.60;60.10
34095;DHT22;20372;47.080;15.410;2023-03-21T14:10:54;19.40;59.60
34095;DHT22;20372;47.080;15.410;2023-03-21T14:13:23;19.80;59.30
34095;DHT22;20372;47.080;15.410;2023-03-21T14:15:51;19.70;59.50
34095;DHT22;20372;47.080;15.410;2023-03-21T14:18:21;19.50;58.20
34095;DHT22;20372;47.080;15.410;2023-03-21T14:20:54;19.50;58.90
34095;DHT22;20372;47.080;15.410;2023-03-21T14:23:20;19.50;59.40
34095;DHT22;20372;47.080;15.410;2023-03-21T14:25:46;19.80;57.90
34095;DHT22;20372;47.080;15.410;2023-03-21T14:28:31;19.50;58.60
34095;DHT22;20372;47.080;15.410;2023-03-21T14:30:58;19.80;58.90
34095;DHT22;20372;47.080;15.410;2023-03-21T14:33:58;20.70;58.60
34095;DHT22;20372;47.080;15.410;2023-03-21T14:36:29;20.50;56.40
34095;DHT22;20372;47.080;15.410;2023-03-21T14:39:16;20.20;58.70
34095;DHT22;20372;47.080;15.410;2023-03-21T14:44:11;20.00;58.20
34095;DHT22;20372;47.080;15.410;2023-03-21T14:46:38;19.50;57.60
34095;DHT22;20372;47.080;15.410;2023-03-21T14:49:10;19.00;58.50
34095;DHT22;20372;47.080;15.410;2023-03-21T14:51:36;19.40;59.20
34095;DHT22;20372;47.080;15.410;2023-03-21T14:54:02;19.50;58.40
34095;DHT22;20372;47.080;15.410;2023-03-21T14:56:28;19.30;59.00
34095;DHT22;20372;47.080;15.410;2023-03-21T14:58:54;19.20;59.50
34095;DHT22;20372;47.080;15.410;2023-03-21T15:01:28;19.20;59.30
34095;DHT22;20372;47.080;15.410;2023-03-21T15:03:54;18.70;58.70
34095;DHT22;20372;47.080;15.410;2023-03-21T15:06:19;18.80;59.50
34095;DHT22;20372;47.080;15.410;2023-03-21T15:11:27;18.90;60.00
34095;DHT22;20372;47.080;15.410;2023-03-21T15:13:53;19.10;59.50
34095;DHT22;20372;47.080;15.410;2023-03-21T15:16:19;19.00;58.90
34095;DHT22;20372;47.080;15.410;2023-03-21T15:18:45;18.80;59.00
34095;DHT22;20372;47.080;15.410;2023-03-21T15:21:16;18.60;59.00
34095;DHT22;20372;47.080;15.410;2023-03-21T15:23:47;18.70;60.90
34095;DHT22;20372;47.080;15.410;2023-03-21T15:26:16;18.60;59.10
34095;DHT22;20372;47.080;15.410;2023-03-21T15:28:46;18.40;59.90
34095;DHT22;20372;47.080;15.410;2023-03-21T15:31:23;18.50;60.20
34095;DHT22;20372;47.080;15.410;2023-03-21T15:33:52;18.70;61.70
34095;DHT22;20372;47.080;15.410;2023-03-21T15:36:18;18.50;61.10
34095;DHT22;20372;47.080;15.410;2023-03-21T15:38:45;18.50;61.30
34095;DHT22;20372;47.080;15.410;2023-03-21T15:46:14;18.60;59.70
34095;DHT22;20372;47.080;15.410;2023-03-21T15:48:40;18.50;60.60
34095;DHT22;20372;47.080;15.410;2023-03-21T15:51:09;18.50;61.50
34095;DHT22;20372;47.080;15.410;2023-03-21T15:53:36;18.30;61.30
34095;DHT22;20372;47.080;15.410;2023-03-21T15:56:02;18.00;60.20
34095;DHT22;20372;47.080;15.410;2023-03-21T15:58:36;17.90;60.60
34095;DHT22;20372;47.080;15.410;2023-03-21T16:01:06;17.90;61.70
34095;DHT22;20372;47.080;15.410;2023-03-21T16:03:35;17.80;60.50
34095;DHT22;20372;47.080;15.410;2023-03-21T16:08:41;17.60;60.80
34095;DHT22;20372;47.080;15.410;2023-03-21T16:11:08;17.60;61.70
34095;DHT22;20372;47.080;15.410;2023-03-21T16:13:33;17.50;60.70
34095;DHT22;20372;47.080;15.410;2023-03-21T16:15:59;17.50;60.90
34095;DHT22;20372;47.080;15.410;2023-03-21T16:18:25;17.60;60.40
34095;DHT22;20372;47.080;15.410;2023-03-21T16:20:50;17.70;60.30
34095;DHT22;20372;47.080;15.410;2023-03-21T16:23:18;17.60;59.80
34095;DHT22;20372;47.080;15.410;2023-03-21T16:25:43;17.60;60.00
34095;DHT22;20372;47.080;15.410;2023-03-21T16:28:16;17.60;59.80
34095;DHT22;20372;47.080;15.410;2023-03-21T16:30:41;17.40;60.20
34095;DHT22;20372;47.080;15.410;2023-03-21T16:33:10;17.30;60.60
34095;DHT22;20372;47.080;15.410;2023-03-21T16:35:36;17.20;60.40
34095;DHT22;20372;47.080;15.410;2023-03-21T16:38:02;17.20;60.60
34095;DHT22;20372;47.080;15.410;2023-03-21T16:42:55;16.90;60.70
34095;DHT22;20372;47.080;15.410;2023-03-21T16:45:21;16.80;61.10
34095;DHT22;20372;47.080;15.410;2023-03-21T16:47:47;16.80;61.40
34095;DHT22;20372;47.080;15.410;2023-03-21T16:50:24;16.70;61.70
34095;DHT22;20372;47.080;15.410;2023-03-21T16:52:51;16.60;61.70
34095;DHT22;20372;47.080;15.410;2023-03-21T16:55:17;16.60;61.80
34095;DHT22;20372;47.080;15.410;2023-03-21T16:57:43;16.50;61.90
34095;DHT22;20372;47.080;15.410;2023-03-21T17:00:11;16.40;62.30
34095;DHT22;20372;47.080;15.410;2023-03-21T17:02:37;16.30;62.70